PWSweather.com
Personal Weather Stations
Station Observations
THAIWX
Pa Daet, Chiang MaiTH 50100

Pa DaetChiang MaiTH 50100

Lat: 18.766158, Lon: 98.97553

Elevation: 1007

Station Type: LaCrosse WS2315 (modified)

http://www.ThaiWx.yolasite.com/

High Low Average
Temperature 91.2°F32.9°C 80.8°F27.1°C 85.7°F29.8°C
Dew Point 75.0°F23.9°C 71.3°F21.8°C 73.4°F23.0°C
Winds 5.3 mph 8.5 kmh Calm Calm 2.0 mph S3.2 kmh S
Wind Gusts 13.2 mph21.2 kmh -- 4.0 mph6.4 kmh
Humidity 79% 58% 67%
Pressure 29.88 in1011.9 mb 29.75 in1007.5 mb -
Precipitation 0.00 in0.0 mm - -
Hour Temp Dew Point Humidity Winds Wind Gusts Pressure Precip Precip Rate Daily Precip Total
12:01 AM 85.3°F29.6°C 72.6°F22.6°C 66% 1.6 mph N2.6 kmh N 2.9 mph4.7 kmh 29.83 in1010.2 mb 0.00 in0.0 mm 0.00 in0.0 mm 0.00 in0.0 mm
12:31 AM 85.1°F29.5°C 73.8°F23.2°C 69% 1.3 mph W2.1 kmh W 2.9 mph4.7 kmh 29.83 in1010.2 mb 0.00 in0.0 mm 0.00 in0.0 mm 0.00 in0.0 mm
01:01 AM 84.4°F29.1°C 74.0°F23.3°C 71% 1.5 mph W2.4 kmh W 3.6 mph5.8 kmh 29.83 in1010.2 mb 0.00 in0.0 mm 0.00 in0.0 mm 0.00 in0.0 mm
01:31 AM 83.5°F28.6°C 73.5°F23.1°C 72% Calm Calm -- 29.83 in1010.2 mb 0.00 in0.0 mm 0.00 in0.0 mm 0.00 in0.0 mm
02:02 AM 82.9°F28.3°C 73.8°F23.2°C 74% Calm Calm -- 29.83 in1010.2 mb 0.00 in0.0 mm 0.00 in0.0 mm 0.00 in0.0 mm
02:32 AM 82.2°F27.9°C 73.1°F22.8°C 74% Calm Calm -- 29.82 in1009.8 mb 0.00 in0.0 mm 0.00 in0.0 mm 0.00 in0.0 mm
03:02 AM 82.0°F27.8°C 72.5°F22.5°C 73% Calm Calm -- 29.82 in1009.8 mb 0.00 in0.0 mm 0.00 in0.0 mm 0.00 in0.0 mm
03:32 AM 81.7°F27.6°C 72.2°F22.3°C 73% Calm Calm -- 29.81 in1009.5 mb 0.00 in0.0 mm 0.00 in0.0 mm 0.00 in0.0 mm
04:02 AM 81.3°F27.4°C 72.2°F22.3°C 74% Calm Calm 3.1 mph5.0 kmh 29.80 in1009.1 mb 0.00 in0.0 mm 0.00 in0.0 mm 0.00 in0.0 mm
04:32 AM 81.3°F27.4°C 71.8°F22.1°C 73% Calm Calm 2.0 mph3.2 kmh 29.80 in1009.1 mb 0.00 in0.0 mm 0.00 in0.0 mm 0.00 in0.0 mm
05:02 AM 81.0°F27.2°C 71.9°F22.2°C 74% Calm Calm -- 29.81 in1009.5 mb 0.00 in0.0 mm 0.00 in0.0 mm 0.00 in0.0 mm
05:32 AM 81.0°F27.2°C 72.7°F22.6°C 76% 3.0 mph SW4.8 kmh SW 5.1 mph8.2 kmh 29.81 in1009.5 mb 0.00 in0.0 mm 0.00 in0.0 mm 0.00 in0.0 mm
06:02 AM 81.1°F27.3°C 73.7°F23.2°C 78% Calm Calm -- 29.80 in1009.1 mb 0.00 in0.0 mm 0.00 in0.0 mm 0.00 in0.0 mm
06:32 AM 81.0°F27.2°C 73.5°F23.1°C 78% Calm Calm -- 29.82 in1009.8 mb 0.00 in0.0 mm 0.00 in0.0 mm 0.00 in0.0 mm
07:02 AM 80.8°F27.1°C 73.7°F23.2°C 79% Calm Calm -- 29.83 in1010.2 mb 0.00 in0.0 mm 0.00 in0.0 mm 0.00 in0.0 mm
07:32 AM 81.0°F27.2°C 73.9°F23.3°C 79% Calm Calm -- 29.84 in1010.5 mb 0.00 in0.0 mm 0.00 in0.0 mm 0.00 in0.0 mm
08:02 AM 81.3°F27.4°C 73.4°F23.0°C 77% Calm Calm 2.9 mph4.7 kmh 29.85 in1010.8 mb 0.00 in0.0 mm 0.00 in0.0 mm 0.00 in0.0 mm
08:32 AM 82.0°F27.8°C 72.9°F22.7°C 74% 1.9 mph WSW3.1 kmh WSW 3.4 mph5.5 kmh 29.85 in1010.8 mb 0.00 in0.0 mm 0.00 in0.0 mm 0.00 in0.0 mm
09:02 AM 82.9°F28.3°C 73.4°F23.0°C 73% Calm Calm 1.8 mph2.9 kmh 29.87 in1011.5 mb 0.00 in0.0 mm 0.00 in0.0 mm 0.00 in0.0 mm
09:32 AM 83.8°F28.8°C 73.8°F23.2°C 72% 1.6 mph ESE2.6 kmh ESE 4.5 mph7.2 kmh 29.87 in1011.5 mb 0.00 in0.0 mm 0.00 in0.0 mm 0.00 in0.0 mm
10:03 AM 84.4°F29.1°C 73.6°F23.1°C 70% 4.3 mph SE6.9 kmh SE 5.8 mph9.3 kmh 29.88 in1011.9 mb 0.00 in0.0 mm 0.00 in0.0 mm 0.00 in0.0 mm
10:33 AM 85.3°F29.6°C 73.5°F23.1°C 68% Calm Calm 8.7 mph14.0 kmh 29.88 in1011.9 mb 0.00 in0.0 mm 0.00 in0.0 mm 0.00 in0.0 mm
11:03 AM 86.5°F30.3°C 74.3°F23.5°C 67% 2.6 mph E4.2 kmh E 4.7 mph7.6 kmh 29.88 in1011.9 mb 0.00 in0.0 mm 0.00 in0.0 mm 0.00 in0.0 mm
11:33 AM 87.6°F30.9°C 74.8°F23.8°C 66% 2.2 mph ENE3.5 kmh ENE 3.8 mph6.1 kmh 29.87 in1011.5 mb 0.00 in0.0 mm 0.00 in0.0 mm 0.00 in0.0 mm
12:03 PM 88.0°F31.1°C 73.8°F23.2°C 63% 1.8 mph ESE2.9 kmh ESE 4.5 mph7.2 kmh 29.85 in1010.8 mb 0.00 in0.0 mm 0.00 in0.0 mm 0.00 in0.0 mm
12:33 PM 88.7°F31.5°C 74.5°F23.6°C 63% 2.8 mph E4.5 kmh E 7.6 mph12.2 kmh 29.85 in1010.8 mb 0.00 in0.0 mm 0.00 in0.0 mm 0.00 in0.0 mm
01:03 PM 89.2°F31.8°C 75.0°F23.9°C 63% 2.8 mph NE4.5 kmh NE 4.7 mph7.6 kmh 29.83 in1010.2 mb 0.00 in0.0 mm 0.00 in0.0 mm 0.00 in0.0 mm
01:33 PM 89.6°F32.0°C 74.9°F23.8°C 61% 2.4 mph E3.9 kmh E 5.8 mph9.3 kmh 29.81 in1009.5 mb 0.00 in0.0 mm 0.00 in0.0 mm 0.00 in0.0 mm
02:04 PM 90.7°F32.6°C 74.9°F23.8°C 60% 3.5 mph SSW5.6 kmh SSW 6.5 mph10.5 kmh 29.79 in1008.8 mb 0.00 in0.0 mm 0.00 in0.0 mm 0.00 in0.0 mm
02:33 PM 91.0°F32.8°C 74.2°F23.4°C 58% Calm Calm 4.7 mph7.6 kmh 29.77 in1008.1 mb 0.00 in0.0 mm 0.00 in0.0 mm 0.00 in0.0 mm
03:04 PM 91.2°F32.9°C 74.3°F23.5°C 58% 2.8 mph ESE4.5 kmh ESE 4.5 mph7.2 kmh 29.77 in1008.1 mb 0.00 in0.0 mm 0.00 in0.0 mm 0.00 in0.0 mm
03:34 PM 91.2°F32.9°C 74.3°F23.5°C 58% 3.5 mph SW5.6 kmh SW 7.8 mph12.6 kmh 29.76 in1007.8 mb 0.00 in0.0 mm 0.00 in0.0 mm 0.00 in0.0 mm
04:04 PM 91.0°F32.8°C 74.2°F23.4°C 58% 1.8 mph SW2.9 kmh SW 6.5 mph10.5 kmh 29.75 in1007.5 mb 0.00 in0.0 mm 0.00 in0.0 mm 0.00 in0.0 mm
04:34 PM 91.0°F32.8°C 74.2°F23.4°C 58% 2.2 mph SSW3.5 kmh SSW 6.3 mph10.1 kmh 29.75 in1007.5 mb 0.00 in0.0 mm 0.00 in0.0 mm 0.00 in0.0 mm
05:04 PM 90.5°F32.5°C 73.7°F23.2°C 58% 4.3 mph SW6.9 kmh SW 7.6 mph12.2 kmh 29.75 in1007.5 mb 0.00 in0.0 mm 0.00 in0.0 mm 0.00 in0.0 mm
05:34 PM 90.1°F32.3°C 73.9°F23.3°C 59% 2.1 mph SW3.4 kmh SW 5.1 mph8.2 kmh 29.75 in1007.5 mb 0.00 in0.0 mm 0.00 in0.0 mm 0.00 in0.0 mm
06:04 PM 89.8°F32.1°C 74.6°F23.7°C 61% 2.6 mph SW4.2 kmh SW 3.8 mph6.1 kmh 29.75 in1007.5 mb 0.00 in0.0 mm 0.00 in0.0 mm 0.00 in0.0 mm
06:34 PM 89.4°F31.9°C 74.2°F23.4°C 61% 3.4 mph SW5.5 kmh SW 6.0 mph9.7 kmh 29.76 in1007.8 mb 0.00 in0.0 mm 0.00 in0.0 mm 0.00 in0.0 mm
07:04 PM 88.3°F31.3°C 73.3°F22.9°C 61% 5.3 mph SW8.5 kmh SW 13.2 mph21.2 kmh 29.77 in1008.1 mb 0.00 in0.0 mm 0.00 in0.0 mm 0.00 in0.0 mm
07:34 PM 88.0°F31.1°C 72.9°F22.7°C 61% 3.1 mph SSW5.0 kmh SSW 5.1 mph8.2 kmh 29.78 in1008.5 mb 0.00 in0.0 mm 0.00 in0.0 mm 0.00 in0.0 mm
08:05 PM 87.1°F30.6°C 72.5°F22.5°C 62% 3.5 mph SW5.6 kmh SW 7.8 mph12.6 kmh 29.80 in1009.1 mb 0.00 in0.0 mm 0.00 in0.0 mm 0.00 in0.0 mm
08:35 PM 86.7°F30.4°C 72.6°F22.6°C 63% 3.0 mph SW4.8 kmh SW 3.8 mph6.1 kmh 29.81 in1009.5 mb 0.00 in0.0 mm 0.00 in0.0 mm 0.00 in0.0 mm
09:05 PM 86.4°F30.2°C 72.3°F22.4°C 63% 2.5 mph SW4.0 kmh SW 4.5 mph7.2 kmh 29.81 in1009.5 mb 0.00 in0.0 mm 0.00 in0.0 mm 0.00 in0.0 mm
09:35 PM 85.8°F29.9°C 71.7°F22.1°C 63% 2.9 mph SW4.7 kmh SW 5.8 mph9.3 kmh 29.83 in1010.2 mb 0.00 in0.0 mm 0.00 in0.0 mm 0.00 in0.0 mm
10:05 PM 85.5°F29.7°C 71.4°F21.9°C 63% Calm Calm 6.9 mph11.1 kmh 29.83 in1010.2 mb 0.00 in0.0 mm 0.00 in0.0 mm 0.00 in0.0 mm
10:35 PM 85.1°F29.5°C 72.0°F22.2°C 65% Calm Calm 1.6 mph2.6 kmh 29.85 in1010.8 mb 0.00 in0.0 mm 0.00 in0.0 mm 0.00 in0.0 mm
11:05 PM 84.7°F29.3°C 71.7°F22.1°C 65% 2.7 mph SSW4.3 kmh SSW 6.0 mph9.7 kmh 29.85 in1010.8 mb 0.00 in0.0 mm 0.00 in0.0 mm 0.00 in0.0 mm
11:35 PM 84.4°F29.1°C 71.3°F21.8°C 65% Calm Calm 2.7 mph4.3 kmh 29.85 in1010.8 mb 0.00 in0.0 mm 0.00 in0.0 mm 0.00 in0.0 mm